Aeroporto :
LOGIN :

Iscrizione | Disclaimer

   EN    FR    IT 

 










Sommario :    VFR   VFR Marginale   IFR   IFR Intensivo   IFR Molto Intensivo
Visibilità : 
Base nubi : 
>= 8 km
>= 3000ft
5 / 8 km
1000 / 3000 ft
1500m / 5 km
500 / 1000 ft
800 / 1500m
200 / 500 ft
< 800m
< 200 ft
Simboli :   Temporali  Nebbia  Neve Forte  Precipitazioni Forti  Vento > 20 kt
SIGMETs :   Varie  Temporali  Ghiacco  Turbolenza  Onda orograficha  Ceneri Vulcaniche






- Altitudine del aeroporto : 1046 ft
- Codice IATA : NUE


EDDN - Nuremberg

ULTIMO METAR :
  • 280050Z AUTO 26003KT CAVOK 09/06 Q1019

METARs OBSOLETI :
  • 280020Z AUTO 27006KT CAVOK 10/06 Q1019
  • 272350Z AUTO 25005KT CAVOK 10/07 Q1019
  • 272320Z AUTO 26005KT CAVOK 10/07 Q1019
  • 272250Z AUTO 26003KT 9999 R28/1000U NSC 11/08 Q1019
  • 272220Z AUTO 28004KT CAVOK 12/09 Q1019

TAF TAF EDDN
Valido dal 28 a 00 ore il 29 a 00 ore UTC


272300Z 2800/2824 30006KT CAVOK
BECMG 2806/2808 30011KT
PROB40
TEMPO 2811/2815 31015G25KT SHRA BKN040TCU
BECMG 2817/2818 30006KT



MetMap, La meteo Aeronautica in un colpo d'occhio ! - Copyright ORBIFLY Dicembre 2007 - Disclaimer

ORBIFLY MET'MAP TEAM :

Programmazione e sviluppo : Alexandra Zaïnal
Concezione : Baudouin d'Aumeries
Supporto tecnico e logistico : Manuel Goepfert
Aiuto : Marc-Olivier Méhu
Aiuto per la traduzione : Arnaldo La Scala

Contatto : metmap@orbifly.com




FONTI E CREDITI :

   NOAA